Time;durP1;ratioP1;P1;durP2;ratioP2;P2;SDS_P1;SDS_P2;PMS_P1;PMS_P2;Temp;Humidity;BMP_temperature;BMP_pressure;BME280_temperature;BME280_humidity;BME280_pressure;Samples;Min_cycle;Max_cycle;Signal;HPM_P1;HPM_P2
2022/11/15 04:37:42;;;;;;;23.48;10.77;;;9.30;94.40;;;;;;5047667;28;20555;-73
2022/11/15 04:40:08;;;;;;;16.58;9.27;;;9.30;94.40;;;;;;5067918;28;20480;-73
2022/11/15 04:42:33;;;;;;;18.45;9.73;;;9.20;94.30;;;;;;5051824;28;20120;-74
2022/11/15 04:44:59;;;;;;;21.27;9.55;;;9.20;94.40;;;;;;5066494;28;20086;-74
2022/11/15 04:47:24;;;;;;;15.57;8.88;;;9.20;94.40;;;;;;5048161;28;20048;-73
2022/11/15 04:49:50;;;;;;;18.67;9.77;;;9.20;94.40;;;;;;5049940;28;20047;-74
2022/11/15 04:52:16;;;;;;;13.88;8.63;;;9.20;94.40;;;;;;5046176;28;20037;-73
2022/11/15 04:54:42;;;;;;;15.38;8.77;;;9.10;94.40;;;;;;5052673;28;20095;-72
2022/11/15 04:57:08;;;;;;;17.58;8.57;;;9.10;94.40;;;;;;5049851;28;20032;-74
2022/11/15 04:59:33;;;;;;;14.77;7.65;;;9.10;94.50;;;;;;5051930;28;20025;-74
2022/11/15 05:01:59;;;;;;;15.05;8.02;;;9.10;94.50;;;;;;5054797;28;20170;-74
2022/11/15 05:04:25;;;;;;;18.13;8.50;;;9.10;94.50;;;;;;5073312;28;20036;-75
2022/11/15 05:06:51;;;;;;;15.18;8.85;;;9.00;94.50;;;;;;5045156;28;20033;-73
2022/11/15 05:09:18;;;;;;;16.77;8.10;;;9.00;94.50;;;;;;5050665;28;20135;-73
2022/11/15 05:11:44;;;;;;;17.73;8.52;;;9.00;94.60;;;;;;5046564;28;20041;-73
2022/11/15 05:14:10;;;;;;;17.67;8.30;;;9.00;94.50;;;;;;5046975;28;20064;-72
2022/11/15 05:16:36;;;;;;;16.52;8.10;;;9.00;94.70;;;;;;5068003;28;20033;-73
2022/11/15 05:19:02;;;;;;;19.35;9.07;;;9.00;94.60;;;;;;5045791;28;20037;-73
2022/11/15 05:21:27;;;;;;;18.02;7.40;;;8.90;94.60;;;;;;5052279;28;20135;-73
2022/11/15 05:23:53;;;;;;;16.38;7.88;;;8.90;94.60;;;;;;5041527;28;20052;-72
2022/11/15 05:26:19;;;;;;;17.70;6.93;;;8.90;94.70;;;;;;5043513;28;20036;-73
2022/11/15 05:28:44;;;;;;;15.07;7.63;;;8.90;94.70;;;;;;5047170;28;20041;-72
2022/11/15 05:31:15;;;;;;;22.83;9.13;;;8.90;94.70;;;;;;5041424;28;20049;-73
2022/11/15 05:33:42;;;;;;;20.15;9.18;;;8.90;94.70;;;;;;5040676;28;20480;-72
2022/11/15 05:36:30;;;;;;;21.45;10.18;;;8.90;94.80;;;;;;5043668;28;20387;-71
2022/11/15 05:38:56;;;;;;;19.90;10.02;;;8.90;94.80;;;;;;5047785;28;20071;-74
2022/11/15 05:41:30;;;;;;;26.65;10.73;;;8.90;94.90;;;;;;5047318;28;20036;-74
2022/11/15 05:43:57;;;;;;;24.20;10.43;;;8.90;94.80;;;;;;5045872;28;20048;-74
2022/11/15 05:46:23;;;;;;;27.65;11.05;;;8.90;94.80;;;;;;5043656;28;20489;-74
2022/11/15 05:48:52;;;;;;;23.77;12.38;;;8.80;94.80;;;;;;5043942;28;20092;-73
2022/11/15 05:51:20;;;;;;;25.95;12.10;;;8.80;94.80;;;;;;5041998;28;20060;-73
2022/11/15 05:53:46;;;;;;;24.15;12.43;;;8.80;94.80;;;;;;5042369;28;20052;-73
2022/11/15 05:56:12;;;;;;;31.67;13.85;;;8.80;94.80;;;;;;5044915;28;20026;-73
2022/11/15 05:58:38;;;;;;;28.90;13.85;;;8.80;94.80;;;;;;5058416;28;20056;-72
2022/11/15 06:01:04;;;;;;;26.20;15.23;;;8.80;94.90;;;;;;5045273;28;20044;-74
2022/11/15 06:03:30;;;;;;;30.92;16.33;;;8.80;95.00;;;;;;5042866;28;20045;-72
2022/11/15 06:05:56;;;;;;;26.35;17.10;;;8.90;94.90;;;;;;5049063;28;20048;-74
2022/11/15 06:08:22;;;;;;;25.75;16.45;;;9.00;94.90;;;;;;5046982;28;20041;-71
2022/11/15 06:10:48;;;;;;;28.92;17.80;;;8.90;94.90;;;;;;5046887;28;20463;-71
2022/11/15 06:13:13;;;;;;;26.17;17.83;;;9.00;94.80;;;;;;5044676;28;20044;-71
2022/11/15 06:15:39;;;;;;;26.75;18.23;;;8.90;94.70;;;;;;5044743;28;20120;-73
2022/11/15 06:18:05;;;;;;;26.38;18.40;;;8.90;94.70;;;;;;5043473;28;20492;-72
2022/11/15 06:20:30;;;;;;;29.88;17.50;;;8.90;94.60;;;;;;5044443;28;20449;-73
2022/11/15 06:23:01;;;;;;;27.17;17.83;;;8.90;94.60;;;;;;5040726;28;20654;-72
2022/11/15 06:25:28;;;;;;;29.30;16.73;;;8.90;94.60;;;;;;5043206;28;20047;-74
2022/11/15 06:27:56;;;;;;;24.92;17.35;;;8.90;94.60;;;;;;5043388;28;20041;-72
2022/11/15 06:30:23;;;;;;;27.95;16.25;;;8.90;94.60;;;;;;5048128;28;20060;-74
2022/11/15 06:32:49;;;;;;;24.05;16.55;;;8.90;94.60;;;;;;5048692;28;20033;-73
2022/11/15 06:35:14;;;;;;;23.30;16.08;;;8.90;94.60;;;;;;5046380;28;20449;-74
2022/11/15 06:37:40;;;;;;;23.35;15.27;;;8.90;94.60;;;;;;5043776;28;20047;-72
2022/11/15 06:40:08;;;;;;;22.00;14.50;;;8.80;94.50;;;;;;5051256;28;20044;-74
2022/11/15 06:42:34;;;;;;;25.25;15.90;;;8.80;94.50;;;;;;5045031;28;20062;-74
2022/11/15 06:45:00;;;;;;;21.48;14.93;;;8.80;94.50;;;;;;5043753;28;20041;-74
2022/11/15 06:47:25;;;;;;;20.92;13.80;;;8.80;94.50;;;;;;5048666;28;21735;-74
2022/11/15 06:49:51;;;;;;;19.13;14.82;;;8.80;94.50;;;;;;5046756;28;20708;-72
2022/11/15 06:52:18;;;;;;;19.73;13.32;;;8.80;94.50;;;;;;5043587;28;20064;-73
2022/11/15 06:54:44;;;;;;;21.20;13.65;;;8.80;94.50;;;;;;5047446;28;20033;-74
2022/11/15 06:57:10;;;;;;;21.42;13.98;;;8.80;94.50;;;;;;5044162;28;20040;-72
2022/11/15 06:59:36;;;;;;;24.95;13.93;;;8.80;94.40;;;;;;5051926;28;20131;-74
2022/11/15 07:02:01;;;;;;;17.40;13.02;;;8.80;94.40;;;;;;5065282;28;20043;-73
2022/11/15 07:04:27;;;;;;;24.23;14.65;;;8.80;94.40;;;;;;5055907;28;20036;-73
2022/11/15 07:06:53;;;;;;;20.77;13.75;;;8.80;94.40;;;;;;5052671;28;20072;-73
2022/11/15 07:09:18;;;;;;;21.30;14.15;;;8.70;94.40;;;;;;5049643;28;20391;-73
2022/11/15 07:11:44;;;;;;;21.83;13.75;;;8.80;94.40;;;;;;5055030;28;20044;-72
2022/11/15 07:14:10;;;;;;;21.67;14.25;;;8.80;94.30;;;;;;5050802;28;20045;-75
2022/11/15 07:16:36;;;;;;;18.00;13.77;;;8.80;94.30;;;;;;5051156;28;20033;-73
2022/11/15 07:19:02;;;;;;;19.52;13.85;;;8.80;94.20;;;;;;5052234;28;20052;-74
2022/11/15 07:21:28;;;;;;;19.67;14.23;;;8.90;94.30;;;;;;5052521;28;20032;-74
2022/11/15 07:23:54;;;;;;;20.10;14.57;;;8.90;94.10;;;;;;5052619;28;20116;-73
2022/11/15 07:26:20;;;;;;;18.23;12.45;;;8.90;94.00;;;;;;5051911;28;20044;-73
2022/11/15 07:28:45;;;;;;;18.60;12.05;;;8.90;93.90;;;;;;5046995;28;20042;-74
2022/11/15 07:31:11;;;;;;;18.65;11.73;;;9.00;93.70;;;;;;5053594;28;20052;-72
2022/11/15 07:33:37;;;;;;;17.50;10.98;;;9.00;93.60;;;;;;5052596;28;20044;-73
2022/11/15 07:36:05;;;;;;;17.70;11.60;;;9.10;93.30;;;;;;5054068;28;20180;-72
2022/11/15 07:38:31;;;;;;;19.95;12.63;;;9.10;93.30;;;;;;5053011;28;20029;-74
2022/11/15 07:41:03;;;;;;;19.90;11.27;;;9.10;93.30;;;;;;5053328;28;20086;-73
2022/11/15 07:43:29;;;;;;;14.25;10.85;;;9.10;93.00;;;;;;5049905;28;20048;-75
2022/11/15 07:45:55;;;;;;;19.63;11.57;;;9.10;92.80;;;;;;5053559;28;20039;-75
2022/11/15 07:48:21;;;;;;;20.77;11.10;;;9.10;92.80;;;;;;5050299;28;20414;-74
2022/11/15 07:50:47;;;;;;;15.18;10.23;;;9.10;92.70;;;;;;5058538;28;20087;-72
2022/11/15 07:53:13;;;;;;;18.77;9.35;;;9.10;92.60;;;;;;5052642;28;20086;-74
2022/11/15 07:55:40;;;;;;;13.05;8.95;;;9.20;92.50;;;;;;5050910;28;20127;-73
2022/11/15 07:58:11;;;;;;;17.38;8.75;;;9.30;92.30;;;;;;5048885;28;20037;-74
2022/11/15 08:00:37;;;;;;;12.48;8.23;;;9.40;92.10;;;;;;5050375;28;20037;-73
2022/11/15 08:03:13;;;;;;;13.38;7.63;;;9.40;91.90;;;;;;5048751;28;20571;-74
2022/11/15 08:05:41;;;;;;;16.27;8.13;;;9.50;91.80;;;;;;5049976;28;20090;-73
2022/11/15 08:08:08;;;;;;;14.13;7.00;;;9.60;91.60;;;;;;5052349;28;20044;-74
2022/11/15 08:10:35;;;;;;;14.02;6.95;;;9.60;91.30;;;;;;5056342;28;20575;-75
2022/11/15 08:13:05;;;;;;;13.15;6.63;;;9.60;91.10;;;;;;5043536;28;20044;-74
2022/11/15 08:15:33;;;;;;;11.18;5.68;;;9.60;91.00;;;;;;5052764;28;20069;-73
2022/11/15 08:18:01;;;;;;;13.57;5.45;;;9.70;90.70;;;;;;5048459;28;20094;-75
2022/11/15 08:20:31;;;;;;;12.90;5.32;;;9.70;90.50;;;;;;5056070;28;20032;-73
2022/11/15 08:22:59;;;;;;;12.05;5.50;;;9.70;90.30;;;;;;5072750;28;20029;-74
2022/11/15 08:25:26;;;;;;;15.52;6.00;;;9.80;89.90;;;;;;5054843;28;20028;-74
2022/11/15 08:27:56;;;;;;;10.57;6.40;;;9.80;89.70;;;;;;5053823;28;20044;-77
2022/11/15 08:30:22;;;;;;;10.88;5.38;;;9.80;89.50;;;;;;5050949;28;20147;-73
2022/11/15 08:32:50;;;;;;;10.85;5.20;;;10.00;89.30;;;;;;5053225;28;20509;-76
2022/11/15 08:35:16;;;;;;;11.50;4.90;;;10.10;89.10;;;;;;5052487;28;20040;-73
2022/11/15 08:37:42;;;;;;;12.85;5.18;;;10.20;88.60;;;;;;5050097;28;20048;-74
2022/11/15 08:40:08;;;;;;;10.10;4.20;;;10.40;88.20;;;;;;5053789;28;20448;-76
2022/11/15 08:42:33;;;;;;;14.65;4.13;;;10.60;87.40;;;;;;5045870;28;20036;-78
2022/11/15 08:44:59;;;;;;;14.57;3.97;;;10.70;86.80;;;;;;5043265;28;20025;-74
2022/11/15 08:47:24;;;;;;;10.45;4.07;;;10.70;86.40;;;;;;5062274;28;20500;-76
2022/11/15 08:49:50;;;;;;;8.68;4.00;;;10.80;85.90;;;;;;5053641;28;20111;-74
2022/11/15 08:52:16;;;;;;;12.88;4.30;;;10.80;85.60;;;;;;5064231;28;20043;-74
2022/11/15 08:54:41;;;;;;;13.10;3.90;;;11.00;85.00;;;;;;5054997;28;20122;-74
2022/11/15 08:57:09;;;;;;;10.50;3.55;;;11.10;84.40;;;;;;5053651;28;20079;-74
2022/11/15 08:59:35;;;;;;;10.95;3.55;;;11.10;84.60;;;;;;5046678;28;20037;-72
2022/11/15 09:02:01;;;;;;;9.90;3.33;;;11.10;84.10;;;;;;5047943;28;20492;-72
2022/11/15 09:04:26;;;;;;;9.60;3.45;;;11.10;83.60;;;;;;5052101;28;20044;-72
2022/11/15 09:06:52;;;;;;;11.07;4.15;;;11.20;83.90;;;;;;5050928;28;20402;-74
2022/11/15 09:09:18;;;;;;;10.50;3.15;;;11.20;83.60;;;;;;5047994;28;20049;-74
2022/11/15 09:11:43;;;;;;;12.75;3.75;;;11.30;83.50;;;;;;5054604;28;20432;-72
2022/11/15 09:14:12;;;;;;;9.82;3.03;;;11.20;83.30;;;;;;5047094;28;20032;-73
2022/11/15 09:16:37;;;;;;;34.47;20.45;;;11.30;83.40;;;;;;5050518;28;20480;-73
2022/11/15 09:19:03;;;;;;;13.45;4.18;;;11.30;83.40;;;;;;5046468;28;20033;-76
2022/11/15 09:21:29;;;;;;;8.65;3.17;;;11.20;83.70;;;;;;5047507;28;20068;-72
2022/11/15 09:23:55;;;;;;;11.18;3.85;;;11.30;83.70;;;;;;5050969;28;20123;-73
2022/11/15 09:26:21;;;;;;;10.50;2.83;;;11.40;83.30;;;;;;5045856;28;20055;-74
2022/11/15 09:28:46;;;;;;;9.55;3.30;;;11.30;83.10;;;;;;5042023;28;20457;-72
2022/11/15 09:31:12;;;;;;;11.52;3.67;;;11.30;83.10;;;;;;5046144;28;20076;-72
2022/11/15 09:33:38;;;;;;;13.27;3.80;;;11.30;83.20;;;;;;5047018;28;20477;-72
2022/11/15 09:36:09;;;;;;;11.07;3.35;;;11.40;82.80;;;;;;5060695;28;20041;-77
2022/11/15 09:38:35;;;;;;;12.15;3.35;;;11.60;82.80;;;;;;5049591;28;20161;-73
2022/11/15 09:41:12;;;;;;;12.07;3.53;;;11.60;82.30;;;;;;5045666;28;20063;-74
2022/11/15 09:44:06;;;;;;;12.10;2.88;;;11.70;81.70;;;;;;5053847;28;20091;-74
2022/11/15 09:47:00;;;;;;;10.18;2.92;;;11.90;81.60;;;;;;5059480;28;20128;-74
2022/11/15 09:49:26;;;;;;;9.07;3.00;;;12.10;81.20;;;;;;5045402;28;20146;-74
2022/11/15 09:51:54;;;;;;;8.15;2.95;;;12.10;80.50;;;;;;5056535;28;20041;-72
2022/11/15 09:54:28;;;;;;;8.35;2.67;;;12.10;80.60;;;;;;5046240;28;20409;-74
2022/11/15 09:56:57;;;;;;;11.15;3.17;;;12.30;79.60;;;;;;5050111;28;20500;-73
2022/11/15 09:59:44;;;;;;;11.95;3.10;;;12.30;79.20;;;;;;5054473;28;20041;-74
2022/11/15 10:02:46;;;;;;;8.98;3.05;;;12.40;79.80;;;;;;5052552;28;20036;-73
2022/11/15 10:05:18;;;;;;;9.10;3.00;;;12.50;78.90;;;;;;5053764;28;20040;-73
2022/11/15 10:08:11;;;;;;;11.48;2.97;;;12.40;78.70;;;;;;5048807;28;20033;-74
2022/11/15 10:10:41;;;;;;;10.45;3.10;;;12.50;79.20;;;;;;5045214;28;20082;-72
2022/11/15 10:13:19;;;;;;;10.23;2.97;;;12.50;78.70;;;;;;5046320;28;20530;-73
2022/11/15 10:15:48;;;;;;;11.43;2.85;;;12.60;78.50;;;;;;5049380;28;20134;-75
2022/11/15 10:18:19;;;;;;;9.63;3.05;;;12.70;78.40;;;;;;5044461;28;20094;-73
2022/11/15 10:20:59;;;;;;;13.90;3.13;;;12.70;78.50;;;;;;5053847;28;20045;-73
2022/11/15 10:23:25;;;;;;;7.80;3.00;;;12.70;77.90;;;;;;5041912;28;20028;-75
2022/11/15 10:25:54;;;;;;;10.75;2.92;;;12.80;77.80;;;;;;5047559;28;20055;-72
2022/11/15 10:28:28;;;;;;;14.15;3.50;;;12.70;77.80;;;;;;5054344;28;20539;-77
2022/11/15 10:30:56;;;;;;;12.05;3.55;;;12.60;77.90;;;;;;5049211;28;20045;-73
2022/11/15 10:33:38;;;;;;;10.90;2.70;;;12.50;78.30;;;;;;5045882;28;20097;-75
2022/11/15 10:36:25;;;;;;;10.80;3.15;;;12.40;78.90;;;;;;5045727;28;20397;-75
2022/11/15 10:38:51;;;;;;;12.40;4.10;;;12.60;79.00;;;;;;5044784;28;20041;-76
2022/11/15 10:41:19;;;;;;;10.18;3.08;;;12.80;78.70;;;;;;5048615;28;20051;-76
2022/11/15 10:43:47;;;;;;;10.73;3.08;;;12.90;78.10;;;;;;5067946;28;20750;-74
2022/11/15 10:46:21;;;;;;;11.55;3.22;;;13.00;77.60;;;;;;5044127;28;20053;-75
2022/11/15 10:48:46;;;;;;;7.07;3.00;;;13.00;77.50;;;;;;5046656;28;20052;-73
2022/11/15 10:51:28;;;;;;;10.38;3.50;;;13.00;77.70;;;;;;5060046;28;20040;-74
2022/11/15 10:53:57;;;;;;;9.73;3.58;;;13.10;77.90;;;;;;5073015;28;20045;-73
2022/11/15 10:56:26;;;;;;;10.55;3.55;;;13.10;77.10;;;;;;5068817;28;20047;-73
2022/11/15 10:58:55;;;;;;;12.52;3.03;;;13.10;77.20;;;;;;5051279;28;20041;-76
2022/11/15 11:01:26;;;;;;;12.07;2.97;;;13.10;77.30;;;;;;5054435;28;20056;-73
2022/11/15 11:04:08;;;;;;;9.48;3.00;;;13.10;77.50;;;;;;5051104;28;20032;-76
2022/11/15 11:06:55;;;;;;;8.00;2.55;;;13.00;77.40;;;;;;5047705;28;20120;-75
2022/11/15 11:09:37;;;;;;;8.98;3.35;;;12.90;78.20;;;;;;5042686;28;20168;-73
2022/11/15 11:12:05;;;;;;;12.02;3.78;;;12.80;78.20;;;;;;5051253;28;20465;-75
2022/11/15 11:14:38;;;;;;;12.43;3.63;;;12.80;78.20;;;;;;5050517;28;20040;-74
2022/11/15 11:17:26;;;;;;;13.48;3.10;;;12.80;78.40;;;;;;5048019;28;20077;-74
2022/11/15 11:20:04;;;;;;;10.52;2.65;;;12.80;78.70;;;;;;5050020;28;20037;-73
2022/11/15 11:23:13;;;;;;;13.40;3.38;;;12.90;78.60;;;;;;5039841;28;20079;-74
2022/11/15 11:26:06;;;;;;;9.68;3.10;;;13.00;78.70;;;;;;5040742;28;20055;-74
2022/11/15 11:28:58;;;;;;;10.43;3.53;;;13.10;78.20;;;;;;5043581;28;20060;-74
2022/11/15 11:31:36;;;;;;;9.25;3.20;;;13.10;77.70;;;;;;5045968;28;20119;-76
2022/11/15 11:34:23;;;;;;;11.43;2.33;;;13.10;77.60;;;;;;5047572;28;20091;-74
2022/11/15 11:37:07;;;;;;;10.77;3.03;;;13.10;77.80;;;;;;5046485;28;20310;-76
2022/11/15 11:40:08;;;;;;;8.75;2.42;;;13.10;77.70;;;;;;5041091;28;20044;-76
2022/11/15 11:42:41;;;;;;;9.45;2.47;;;13.10;77.70;;;;;;5043034;28;20063;-75
2022/11/15 11:45:21;;;;;;;8.65;2.38;;;13.10;78.00;;;;;;5043630;28;20111;-74
2022/11/15 11:47:55;;;;;;;15.02;2.70;;;13.10;77.70;;;;;;5043637;28;20025;-74
2022/11/15 11:50:26;;;;;;;6.43;2.65;;;13.00;77.90;;;;;;5049395;28;20099;-75
2022/11/15 11:53:01;;;;;;;9.75;3.70;;;13.00;78.10;;;;;;5046839;28;20708;-76
2022/11/15 11:55:38;;;;;;;8.00;3.10;;;13.00;78.40;;;;;;5045916;28;20123;-75
2022/11/15 11:58:20;;;;;;;5.72;2.42;;;13.10;77.90;;;;;;5062502;28;20427;-74
2022/11/15 12:00:58;;;;;;;10.30;2.80;;;12.90;78.10;;;;;;5045296;28;20033;-75
2022/11/15 12:03:57;;;;;;;7.68;2.40;;;13.00;78.30;;;;;;5046780;28;20040;-74
2022/11/15 12:06:42;;;;;;;9.38;3.05;;;13.00;78.50;;;;;;5044193;28;20052;-75
2022/11/15 12:09:32;;;;;;;10.90;2.97;;;12.90;78.50;;;;;;5041591;28;20033;-75
2022/11/15 12:12:24;;;;;;;8.63;3.33;;;12.90;78.70;;;;;;5046229;28;20041;-74
2022/11/15 12:14:54;;;;;;;10.63;3.50;;;12.90;79.20;;;;;;5044774;28;20504;-74
2022/11/15 12:17:24;;;;;;;7.75;3.15;;;12.80;79.10;;;;;;5047246;28;20797;-75
2022/11/15 12:19:52;;;;;;;11.07;3.45;;;12.90;79.20;;;;;;5054103;28;20049;-74
2022/11/15 12:22:27;;;;;;;8.60;2.88;;;12.80;79.50;;;;;;5053365;28;20365;-75
2022/11/15 12:24:58;;;;;;;8.70;3.42;;;12.80;79.60;;;;;;5051517;28;20132;-74
2022/11/15 12:27:36;;;;;;;10.43;3.60;;;12.80;79.70;;;;;;5052174;28;20060;-73
2022/11/15 12:30:10;;;;;;;8.07;2.55;;;12.80;79.70;;;;;;5054511;28;20076;-73
2022/11/15 12:32:38;;;;;;;8.07;2.27;;;12.80;79.50;;;;;;5041704;28;20171;-75
2022/11/15 12:35:21;;;;;;;6.97;2.88;;;12.90;79.50;;;;;;5049628;28;20286;-75
2022/11/15 12:37:49;;;;;;;5.78;2.40;;;12.90;79.10;;;;;;5051334;28;20033;-75
2022/11/15 12:40:18;;;;;;;6.15;2.53;;;13.00;78.80;;;;;;5048041;28;20151;-74
2022/11/15 12:43:02;;;;;;;8.10;2.90;;;13.00;78.80;;;;;;5055088;28;20504;-76
2022/11/15 12:45:45;;;;;;;8.52;2.40;;;13.10;78.50;;;;;;5046513;28;20037;-73
2022/11/15 12:48:16;;;;;;;8.25;2.65;;;13.10;78.30;;;;;;5048400;28;20543;-75
2022/11/15 12:50:54;;;;;;;9.07;2.47;;;13.00;78.50;;;;;;5061228;28;20510;-73
2022/11/15 12:53:32;;;;;;;7.63;2.78;;;13.10;78.70;;;;;;5054291;28;20691;-73
2022/11/15 12:56:04;;;;;;;11.15;3.30;;;13.10;78.90;;;;;;5054948;28;20095;-74
2022/11/15 12:58:57;;;;;;;6.40;2.60;;;13.00;79.00;;;;;;5054812;28;20025;-74
2022/11/15 13:01:32;;;;;;;6.57;2.50;;;13.00;79.10;;;;;;5055356;28;20477;-75
2022/11/15 13:04:19;;;;;;;11.07;2.85;;;13.00;79.80;;;;;;5050106;28;20128;-74
2022/11/15 13:06:46;;;;;;;8.38;2.95;;;12.90;80.40;;;;;;5058323;28;20549;-75
2022/11/15 13:09:37;;;;;;;7.03;3.22;;;12.90;80.90;;;;;;5051691;28;20443;-75
2022/11/15 13:12:21;;;;;;;6.05;2.70;;;12.80;81.00;;;;;;5051464;28;20041;-74
2022/11/15 13:14:48;;;;;;;7.53;2.80;;;12.80;81.50;;;;;;5046709;28;20036;-74
2022/11/15 13:17:23;;;;;;;4.97;2.60;;;12.70;81.50;;;;;;5052907;28;20465;-75
2022/11/15 13:20:07;;;;;;;7.95;2.80;;;12.70;82.00;;;;;;5048623;28;20052;-76
2022/11/15 13:22:59;;;;;;;6.97;3.25;;;12.70;82.20;;;;;;5048723;28;20504;-74
2022/11/15 13:25:37;;;;;;;7.70;3.05;;;12.70;82.60;;;;;;5047657;28;20162;-76
2022/11/15 13:28:21;;;;;;;7.47;2.75;;;12.70;82.50;;;;;;5046462;28;20041;-76
2022/11/15 13:30:47;;;;;;;8.07;3.05;;;12.60;83.10;;;;;;5051221;28;20076;-75
2022/11/15 13:33:23;;;;;;;6.55;3.22;;;12.60;83.70;;;;;;5050572;28;20488;-75
2022/11/15 13:35:53;;;;;;;7.05;3.35;;;12.60;83.60;;;;;;5047539;28;20037;-76
2022/11/15 13:38:30;;;;;;;7.03;2.83;;;12.50;84.10;;;;;;5046153;28;20064;-75
2022/11/15 13:40:57;;;;;;;7.95;3.47;;;12.40;84.20;;;;;;5046100;28;20046;-74
2022/11/15 13:43:35;;;;;;;9.57;3.72;;;12.50;84.60;;;;;;5043620;28;20040;-75
2022/11/15 13:46:27;;;;;;;9.27;4.00;;;12.40;84.90;;;;;;5054883;28;20588;-75
2022/11/15 13:49:00;;;;;;;9.82;3.80;;;12.30;85.30;;;;;;5048658;28;20045;-75
2022/11/15 13:51:46;;;;;;;13.73;4.55;;;12.30;85.60;;;;;;5047917;28;20055;-76
2022/11/15 13:54:12;;;;;;;8.80;4.05;;;12.30;85.50;;;;;;5048014;28;20036;-74
2022/11/15 13:56:42;;;;;;;9.85;3.38;;;12.30;85.50;;;;;;5049414;28;20047;-75
2022/11/15 13:59:24;;;;;;;10.00;3.72;;;12.20;85.50;;;;;;5064784;28;20396;-76
2022/11/15 14:01:51;;;;;;;8.38;3.05;;;12.20;85.60;;;;;;5043830;28;20052;-76
2022/11/15 14:04:20;;;;;;;8.38;3.08;;;12.20;85.70;;;;;;5057555;28;20051;-75
2022/11/15 14:06:50;;;;;;;7.10;2.92;;;12.20;86.00;;;;;;5046681;28;20037;-74
2022/11/15 14:09:40;;;;;;;7.93;3.35;;;12.10;86.30;;;;;;5055712;28;20798;-75
2022/11/15 14:12:31;;;;;;;7.38;3.13;;;12.10;86.70;;;;;;5043105;28;20071;-75
2022/11/15 14:15:19;;;;;;;7.25;3.10;;;12.10;86.80;;;;;;5048627;28;20551;-74
2022/11/15 14:17:45;;;;;;;8.77;3.10;;;12.00;87.10;;;;;;5049150;28;20037;-74
2022/11/15 14:20:27;;;;;;;7.28;3.15;;;12.00;87.30;;;;;;5047631;28;20037;-73
2022/11/15 14:23:04;;;;;;;7.00;2.83;;;11.90;87.50;;;;;;5045455;28;20041;-74
2022/11/15 14:25:31;;;;;;;5.63;3.10;;;11.90;87.80;;;;;;5049931;28;20033;-75
2022/11/15 14:28:15;;;;;;;8.07;4.30;;;11.90;87.90;;;;;;5049769;28;20029;-75
2022/11/15 14:30:46;;;;;;;5.45;3.28;;;11.90;88.20;;;;;;5049045;28;20106;-74
2022/11/15 14:33:32;;;;;;;11.48;3.67;;;11.80;88.50;;;;;;5051775;28;20127;-75
2022/11/15 14:36:12;;;;;;;6.28;3.15;;;11.80;88.80;;;;;;5046521;28;20175;-73
2022/11/15 14:38:38;;;;;;;6.20;3.42;;;11.70;88.90;;;;;;5046392;28;20183;-75
2022/11/15 14:41:04;;;;;;;9.18;3.75;;;11.70;89.10;;;;;;5045867;28;20124;-74
2022/11/15 14:43:29;;;;;;;7.30;3.50;;;11.70;89.20;;;;;;5051174;28;20057;-75
2022/11/15 14:45:55;;;;;;;7.78;3.75;;;11.70;89.40;;;;;;5052019;28;20041;-74
2022/11/15 14:48:21;;;;;;;11.27;4.35;;;11.70;89.50;;;;;;5047845;28;20090;-75
2022/11/15 14:50:47;;;;;;;7.07;3.97;;;11.70;89.70;;;;;;5047360;28;20108;-75
2022/11/15 14:53:15;;;;;;;8.10;4.05;;;11.70;89.90;;;;;;5046059;28;20160;-74
2022/11/15 14:55:41;;;;;;;8.38;4.30;;;11.60;90.00;;;;;;5050760;28;20040;-73
2022/11/15 14:58:07;;;;;;;8.70;4.63;;;11.60;90.20;;;;;;5043969;28;20447;-74
2022/11/15 15:00:37;;;;;;;8.95;4.28;;;11.60;90.30;;;;;;5045856;28;20040;-75
2022/11/15 15:03:04;;;;;;;9.45;5.07;;;11.60;90.60;;;;;;5046114;28;20041;-73
2022/11/15 15:05:38;;;;;;;11.43;6.10;;;11.60;90.90;;;;;;5043808;28;20089;-75
2022/11/15 15:08:05;;;;;;;11.52;5.50;;;11.60;91.00;;;;;;5064533;28;20127;-75
2022/11/15 15:10:37;;;;;;;8.85;5.15;;;11.60;91.10;;;;;;5051214;28;20068;-75
2022/11/15 15:13:04;;;;;;;8.80;5.25;;;11.60;91.30;;;;;;5050086;28;20086;-75
2022/11/15 15:15:34;;;;;;;8.63;5.28;;;11.70;91.30;;;;;;5049490;28;20121;-75
2022/11/15 15:18:00;;;;;;;9.85;5.00;;;11.70;91.40;;;;;;5045064;28;20033;-74
2022/11/15 15:20:27;;;;;;;10.57;5.53;;;11.60;91.50;;;;;;5045326;28;20041;-76
2022/11/15 15:22:52;;;;;;;9.75;4.97;;;11.70;91.50;;;;;;5052166;28;20049;-74
2022/11/15 15:25:34;;;;;;;11.88;6.45;;;11.70;91.60;;;;;;5049824;28;20033;-76
2022/11/15 15:28:00;;;;;;;11.98;6.38;;;11.70;91.70;;;;;;5048277;28;20036;-75
2022/11/15 15:30:29;;;;;;;14.15;6.80;;;11.70;91.80;;;;;;5056254;28;20043;-75
2022/11/15 15:32:54;;;;;;;12.75;5.53;;;11.70;91.90;;;;;;5047641;28;20041;-76
2022/11/15 15:35:21;;;;;;;9.43;6.00;;;11.70;92.00;;;;;;5049987;28;20044;-76
2022/11/15 15:37:48;;;;;;;8.85;5.47;;;11.70;92.10;;;;;;5052194;28;20132;-77
2022/11/15 15:40:19;;;;;;;11.90;5.75;;;11.70;92.20;;;;;;5057645;28;20029;-75
2022/11/15 15:42:45;;;;;;;11.18;5.47;;;11.70;92.20;;;;;;5052699;28;20431;-76
2022/11/15 15:45:12;;;;;;;8.70;5.20;;;11.80;92.30;;;;;;5058281;28;20486;-75
2022/11/15 15:47:38;;;;;;;8.27;5.50;;;11.80;92.40;;;;;;5048884;28;20029;-75
2022/11/15 15:50:25;;;;;;;9.55;5.75;;;11.80;92.40;;;;;;5051030;28;20504;-75
2022/11/15 15:52:52;;;;;;;9.25;5.60;;;11.80;92.50;;;;;;5047586;28;20139;-75
2022/11/15 15:55:18;;;;;;;8.90;5.85;;;11.80;92.50;;;;;;5050548;28;20515;-77
2022/11/15 15:57:43;;;;;;;9.18;5.60;;;11.80;92.50;;;;;;5054383;28;20041;-76
2022/11/15 16:00:10;;;;;;;8.75;5.53;;;11.80;92.60;;;;;;5049852;28;20361;-76
2022/11/15 16:02:36;;;;;;;10.02;5.55;;;11.80;92.60;;;;;;5050876;28;20028;-76
2022/11/15 16:05:02;;;;;;;8.80;5.90;;;11.90;92.60;;;;;;5054906;28;20043;-77
2022/11/15 16:07:29;;;;;;;11.13;6.25;;;11.90;92.70;;;;;;5048382;28;20142;-76
2022/11/15 16:10:01;;;;;;;8.00;5.65;;;11.90;92.60;;;;;;5052631;28;20043;-77
2022/11/15 16:12:31;;;;;;;9.73;6.03;;;11.90;92.60;;;;;;5058110;28;20488;-77
2022/11/15 16:14:58;;;;;;;12.05;7.13;;;11.90;92.70;;;;;;5055727;28;20044;-76
2022/11/15 16:17:28;;;;;;;10.38;6.47;;;11.90;92.60;;;;;;5048301;28;20032;-76
2022/11/15 16:19:54;;;;;;;11.48;7.53;;;11.90;92.70;;;;;;5057520;28;20396;-76
2022/11/15 16:22:20;;;;;;;10.90;6.60;;;12.00;92.70;;;;;;5046597;28;20037;-77
2022/11/15 16:24:46;;;;;;;14.35;10.00;;;12.00;92.60;;;;;;5048522;28;20037;-77
2022/11/15 16:27:15;;;;;;;27.27;18.52;;;11.90;92.70;;;;;;5050904;28;20497;-78
2022/11/15 16:29:40;;;;;;;11.13;7.18;;;12.00;92.70;;;;;;5047144;28;20147;-75
2022/11/15 16:32:06;;;;;;;11.05;6.45;;;12.00;92.70;;;;;;5056853;28;20075;-77
2022/11/15 16:34:31;;;;;;;8.50;6.43;;;12.00;92.80;;;;;;5048242;28;20108;-76
2022/11/15 16:36:57;;;;;;;8.63;6.03;;;11.90;92.80;;;;;;5064811;28;20029;-74
2022/11/15 16:39:23;;;;;;;9.10;6.28;;;12.00;92.90;;;;;;5056351;28;20561;-73
2022/11/15 16:41:48;;;;;;;13.18;6.82;;;12.00;92.80;;;;;;5047938;28;20127;-82
2022/11/15 16:44:14;;;;;;;11.23;6.30;;;12.00;92.90;;;;;;5065807;28;20033;-73
2022/11/15 16:46:43;;;;;;;9.63;6.65;;;12.00;92.90;;;;;;5050345;28;20061;-75
2022/11/15 16:49:14;;;;;;;10.20;6.60;;;12.00;92.90;;;;;;5044029;28;20086;-79
2022/11/15 16:51:40;;;;;;;10.55;6.38;;;12.00;93.10;;;;;;5046251;28;20079;-77
2022/11/15 16:54:06;;;;;;;10.27;6.22;;;12.00;93.10;;;;;;5046179;28;20033;-74
2022/11/15 16:56:33;;;;;;;10.07;6.60;;;12.00;93.10;;;;;;5046982;28;20052;-76
2022/11/15 16:59:00;;;;;;;9.00;6.72;;;12.00;93.10;;;;;;5045614;28;20106;-74
2022/11/15 17:01:32;;;;;;;10.55;6.95;;;12.00;93.10;;;;;;5052513;28;20044;-74
2022/11/15 17:03:58;;;;;;;10.38;7.50;;;12.00;93.20;;;;;;5048827;28;20523;-79
2022/11/15 17:06:25;;;;;;;11.77;7.78;;;12.00;93.20;;;;;;5055342;28;20036;-73
2022/11/15 17:08:51;;;;;;;12.98;7.85;;;12.00;93.30;;;;;;5050700;28;20550;-72
2022/11/15 17:11:19;;;;;;;10.40;7.78;;;12.00;93.30;;;;;;5050783;28;20090;-75
2022/11/15 17:13:45;;;;;;;11.98;7.22;;;12.10;93.30;;;;;;5061080;28;20032;-79
2022/11/15 17:16:13;;;;;;;11.13;7.93;;;12.00;93.30;;;;;;5054784;28;20057;-74
2022/11/15 17:18:40;;;;;;;10.95;8.57;;;12.00;93.30;;;;;;5047531;28;20131;-74
2022/11/15 17:21:05;;;;;;;12.10;8.23;;;12.00;93.30;;;;;;5052985;28;20037;-74
2022/11/15 17:23:31;;;;;;;12.30;8.13;;;12.00;93.40;;;;;;5044419;28;20052;-76
2022/11/15 17:26:03;;;;;;;12.18;8.02;;;12.00;93.40;;;;;;5054053;28;20033;-74
2022/11/15 17:28:29;;;;;;;12.25;8.02;;;12.00;93.40;;;;;;5046410;28;20249;-73
2022/11/15 17:30:54;;;;;;;10.02;8.20;;;12.00;93.50;;;;;;5068998;28;20049;-76
2022/11/15 17:33:20;;;;;;;10.38;7.88;;;11.90;93.50;;;;;;5063199;28;20106;-78
2022/11/15 17:35:46;;;;;;;12.82;7.43;;;12.00;93.50;;;;;;5055750;28;20033;-74